Logo AVAMET
Benvolgut visitant, si us plau, ingressa Recuperar contrasenya

Inforatge Alcalà de Xivert Alcossebre

Dades diàries. Acumulats / Últims 30 dies disponibles

Data Temperatura (°C) Humitat rel. (%) Pressió rel. (hPa) Vent (km/h) Precipitació
Mínima Mitjana Màxima Amplitud
tèrmica
Mínima Mitjana Màxima Mínima Mitjana Màxima Predom. Mitjana Ràfega
màxima
Total
(mm)
Índex-n
Mínima Mitjana Màxima Mínima Mitjana Màxima n
0 a 1
P0 max
mm 5'
Dades mensuals acumulades fins l'últim dia disponible
01/2020 1,4 5,2 8,9 9,7 11,3 14,4 17,7 16,3 43 81 96 1.020 1.030 1.035   2,3 46,7 2,4
Dades anuals acumulades fins l'últim dia disponible
2020 1,4 5,2 8,9 9,7 11,3 14,4 17,7 16,3 43 81 96 1.020 1.030 1.035   2,3 46,7 2,4
Últims 30 dies disponibles
18-01-2020 8,1     11,8     15,3 7,2 46 69 89 1.020 1.028 1.034 W 4,5 46,7 0,0
17-01-2020 5,2     11,4     17,7 12,5 43 73 96 1.027 1.029 1.034 W 2,6 27,4 0,0
16-01-2020 4,6     9,7     16,7 12,1 62 86 95 1.028 1.029 1.031 E 1,4 12,9 0,0
15-01-2020 3,0     8,1     14,4 11,4 65 82 95 1.024 1.026 1.029 WSW 1,9 14,5 0,2
14-01-2020 2,3     7,6     14,5 12,2 56 82 93 1.023 1.024 1.025 SSE 1,0 12,9 0,0
13-01-2020 1,4     7,8     12,7 11,3 59 79 92 1.023 1.026 1.031 W 1,9 16,1 0,2
12-01-2020 2,5     7,7     12,6 10,1 69 85 93 1.031 1.032 1.033 E 1,9 11,3 0,0
11-01-2020 4,9     10,9     15,1 10,2 46 65 90 1.029 1.031 1.033 NW 5,5 41,8 0,0
10-01-2020 7,1     11,7     14,1 7,0 53 70 95 1.025 1.027 1.030 N 7,4 40,2 1,4 0,58 0,60
09-01-2020 5,7     10,0     14,7 9,0 75 86 95 1.026 1.029 1.033 WSW 2,3 14,5 0,2
08-01-2020 4,3     9,2     14,7 10,4 69 87 96 1.029 1.032 1.034 E 1,1 9,7 0,2
07-01-2020 5,9     9,6     14,0 8,1 79 88 95 1.030 1.032 1.034 W 1,6 11,3 0,0
06-01-2020 5,9     9,9     14,7 8,8 74 85 94 1.029 1.031 1.032 E 1,1 9,7 0,2
05-01-2020 4,2     9,4     14,9 10,7 61 81 93 1.029 1.031 1.033 W 1,6 11,3 0,0
04-01-2020 3,6     9,3     15,2 11,6 68 85 95 1.033 1.034 1.035 W 1,9 17,7 0,0
03-01-2020 7,7     10,1     13,1 5,4 79 88 94 1.031 1.033 1.034 ENE 1,4 17,7 0,0
02-01-2020 8,6     10,6     12,9 4,3 80 85 92 1.032 1.033 1.035 E 1,0 9,7 0,0
01-01-2020 8,9     10,2     11,3 2,4 81 86 92 1.033 1.034 1.035 ENE 2,1 17,7 0,0
31-12-2019 8,9     10,6     13,0 4,1 77 86 92 1.033 1.034 1.036 SO 0,8 11,3 0,0
30-12-2019 7,4     11,5     15,3 7,9 65 81 92 1.033 1.034 1.036 SSE 1,0 14,5 0,0
29-12-2019 10,1     12,3     14,9 4,8 67 80 89 1.032 1.034 1.036 NW 3,1 16,1 0,0
28-12-2019 6,7     10,3     14,7 8,0 76 88 96 1.030 1.032 1.034 WSW 1,6 14,5 0,0
27-12-2019 6,3     10,5     14,7 8,4 69 85 94 1.029 1.031 1.032 ENE 1,8 17,7 0,2
26-12-2019 7,6     13,6     22,3 14,7 42 77 95 1.023 1.026 1.031 WSW 3,7 48,3 0,0
25-12-2019 8,1     12,1     17,7 9,6 59 83 92 1.024 1.025 1.027 ENE 1,4 12,9 0,0
24-12-2019 10,2     14,3     22,4 12,2 46 72 86 1.026 1.027 1.028 WSW 1,9 17,7 0,0
23-12-2019 10,3     15,0     18,7 8,4 40 52 69 1.019 1.025 1.027 NW 3,9 33,8 0,0
22-12-2019 15,9     19,3     22,8 6,9 31 45 61 1.006 1.012 1.019 W 14,0 56,3 0,0
21-12-2019 12,4     18,8     25,7 13,3 32 67 89 998 1.002 1.006 W 11,7 74,0 0,0
20-12-2019 12,4     16,1     19,6 7,2 67 80 92 999 1.002 1.008 ENE 6,0 41,8 0,0
Últims 13 mesos disponibles
12/2019 6,1 9,4 15,9 13,4 12,9 17,5 25,7 19,6 45 75 92 1.002 1.020 1.034 W 4,4 74,0 79,0
11/2019 4,6 9,8 16,3 14,7 15,1 19,3 25,6 21,0 44 60 86 997 1.011 1.019 NW 6,5 82,1 5,6
10/2019 11,2 15,4 21,2 19,8 19,4 24,1 28,8 17,6 46 74 88 1.007 1.018 1.023 SSO 4,1 70,8 33,2
09/2019 14,3 19,4 22,8 23,2 23,9 26,6 27,9 13,6 48 75 87 1.011 1.019 1.027 SSE 5,3 72,2 52,4
Tots els anys disponibles
Temperatura (°C)
Humitat relativa (%)
Velocitat del vent i ràfega màxima (km/h)
Direcció del vent (°)
Pressió (hPa)
Precipitació (mm)
Nota sobre les dades: s'avisa a l'usuari de la provisionalitat i no oficialitat d'aquestes dades
Logo AVAMET blanc
Web allotjada a Sollutia
Llicència de Creative CommonsLa web d'AVAMET i els seus continguts estan subjectes a una llicència de
Reconeixement - No Comercial - Compartir igual
Últimes estacions: Xixona - Els Ameradors (Soci), Agres - El Tossal (Soci), Xàbia - Bevenguts (MeteoXàbia), Llíria (Aj. Soci/Inforatge), Orihuela - Lo Capitán, Cox & Guardamar del Segura - horta (Meteorihuela), l'Alcúdia - Carriona & el Real de Gandia (Inforatge), Benicàssim - les Vil·les (Soci),  l'Alfàs del Pi - l'Albir (Soci), - - -